sensor_id;sensor_type;location;lat;lon;timestamp;P1;durP1;ratioP1;P2;durP2;ratioP2
26822;SDS011;14852;51.910;8.878;2023-05-10T00:01:24;7.22;;;6.57;;
26822;SDS011;14852;51.910;8.878;2023-05-10T00:03:49;6.90;;;6.20;;
26822;SDS011;14852;51.910;8.878;2023-05-10T00:06:16;7.88;;;7.05;;
26822;SDS011;14852;51.910;8.878;2023-05-10T00:08:42;6.80;;;6.18;;
26822;SDS011;14852;51.910;8.878;2023-05-10T00:11:07;7.95;;;6.63;;
26822;SDS011;14852;51.910;8.878;2023-05-10T00:13:33;6.82;;;6.22;;
26822;SDS011;14852;51.910;8.878;2023-05-10T00:15:59;6.43;;;5.82;;
26822;SDS011;14852;51.910;8.878;2023-05-10T00:18:24;6.75;;;6.00;;
26822;SDS011;14852;51.910;8.878;2023-05-10T00:20:50;6.95;;;6.03;;
26822;SDS011;14852;51.910;8.878;2023-05-10T00:23:16;7.75;;;7.05;;
26822;SDS011;14852;51.910;8.878;2023-05-10T00:25:42;6.95;;;6.10;;
26822;SDS011;14852;51.910;8.878;2023-05-10T00:28:08;6.85;;;6.22;;
26822;SDS011;14852;51.910;8.878;2023-05-10T00:30:33;7.50;;;6.80;;
26822;SDS011;14852;51.910;8.878;2023-05-10T00:33:00;6.18;;;5.57;;
26822;SDS011;14852;51.910;8.878;2023-05-10T00:35:26;6.53;;;5.93;;
26822;SDS011;14852;51.910;8.878;2023-05-10T00:37:52;6.88;;;6.18;;
26822;SDS011;14852;51.910;8.878;2023-05-10T00:40:19;8.40;;;6.97;;
26822;SDS011;14852;51.910;8.878;2023-05-10T00:42:49;6.95;;;6.28;;
26822;SDS011;14852;51.910;8.878;2023-05-10T00:45:15;7.25;;;6.57;;
26822;SDS011;14852;51.910;8.878;2023-05-10T00:47:41;6.93;;;6.30;;
26822;SDS011;14852;51.910;8.878;2023-05-10T00:50:06;7.90;;;7.10;;
26822;SDS011;14852;51.910;8.878;2023-05-10T00:52:34;7.90;;;7.15;;
26822;SDS011;14852;51.910;8.878;2023-05-10T00:54:59;7.50;;;6.65;;
26822;SDS011;14852;51.910;8.878;2023-05-10T00:57:26;7.53;;;6.78;;
26822;SDS011;14852;51.910;8.878;2023-05-10T00:59:52;8.30;;;7.50;;
26822;SDS011;14852;51.910;8.878;2023-05-10T01:02:18;7.78;;;7.00;;
26822;SDS011;14852;51.910;8.878;2023-05-10T01:04:44;7.25;;;6.55;;
26822;SDS011;14852;51.910;8.878;2023-05-10T01:07:09;8.27;;;6.60;;
26822;SDS011;14852;51.910;8.878;2023-05-10T01:20:10;6.57;;;5.90;;
26822;SDS011;14852;51.910;8.878;2023-05-10T01:22:53;7.55;;;6.85;;
26822;SDS011;14852;51.910;8.878;2023-05-10T01:34:25;7.70;;;7.00;;
26822;SDS011;14852;51.910;8.878;2023-05-10T01:37:02;7.85;;;6.85;;
26822;SDS011;14852;51.910;8.878;2023-05-10T01:39:55;7.18;;;6.47;;
26822;SDS011;14852;51.910;8.878;2023-05-10T01:42:36;7.65;;;6.88;;
26822;SDS011;14852;51.910;8.878;2023-05-10T01:45:18;7.55;;;6.78;;
26822;SDS011;14852;51.910;8.878;2023-05-10T01:48:09;7.97;;;7.18;;
26822;SDS011;14852;51.910;8.878;2023-05-10T01:50:38;7.63;;;6.82;;
26822;SDS011;14852;51.910;8.878;2023-05-10T01:53:09;8.50;;;7.43;;
26822;SDS011;14852;51.910;8.878;2023-05-10T01:58:58;8.10;;;7.00;;
26822;SDS011;14852;51.910;8.878;2023-05-10T02:01:28;7.95;;;7.25;;
26822;SDS011;14852;51.910;8.878;2023-05-10T02:03:54;7.80;;;7.10;;
26822;SDS011;14852;51.910;8.878;2023-05-10T02:06:23;8.25;;;7.47;;
26822;SDS011;14852;51.910;8.878;2023-05-10T02:08:51;7.90;;;7.10;;
26822;SDS011;14852;51.910;8.878;2023-05-10T02:11:18;8.63;;;7.82;;
26822;SDS011;14852;51.910;8.878;2023-05-10T02:13:46;9.55;;;7.82;;
26822;SDS011;14852;51.910;8.878;2023-05-10T02:16:14;9.43;;;7.93;;
26822;SDS011;14852;51.910;8.878;2023-05-10T02:18:41;8.82;;;7.53;;
26822;SDS011;14852;51.910;8.878;2023-05-10T02:21:08;9.30;;;8.30;;
26822;SDS011;14852;51.910;8.878;2023-05-10T02:23:38;8.77;;;7.97;;
26822;SDS011;14852;51.910;8.878;2023-05-10T02:26:04;8.85;;;7.95;;
26822;SDS011;14852;51.910;8.878;2023-05-10T02:28:32;8.65;;;7.75;;
26822;SDS011;14852;51.910;8.878;2023-05-10T02:31:00;7.68;;;6.97;;
26822;SDS011;14852;51.910;8.878;2023-05-10T02:33:27;7.95;;;7.15;;
26822;SDS011;14852;51.910;8.878;2023-05-10T02:35:54;6.53;;;5.70;;
26822;SDS011;14852;51.910;8.878;2023-05-10T02:38:21;5.97;;;4.15;;
26822;SDS011;14852;51.910;8.878;2023-05-10T02:40:49;4.57;;;4.00;;
26822;SDS011;14852;51.910;8.878;2023-05-10T02:43:17;3.92;;;3.53;;
26822;SDS011;14852;51.910;8.878;2023-05-10T02:45:46;4.03;;;3.53;;
26822;SDS011;14852;51.910;8.878;2023-05-10T02:48:13;4.63;;;3.53;;
26822;SDS011;14852;51.910;8.878;2023-05-10T02:50:38;5.00;;;3.05;;
26822;SDS011;14852;51.910;8.878;2023-05-10T02:53:10;2.65;;;2.20;;
26822;SDS011;14852;51.910;8.878;2023-05-10T02:55:44;2.30;;;1.77;;
26822;SDS011;14852;51.910;8.878;2023-05-10T02:58:12;2.53;;;1.42;;
26822;SDS011;14852;51.910;8.878;2023-05-10T03:00:38;1.50;;;1.40;;
26822;SDS011;14852;51.910;8.878;2023-05-10T03:03:04;1.15;;;1.00;;
26822;SDS011;14852;51.910;8.878;2023-05-10T03:05:29;1.40;;;1.30;;
26822;SDS011;14852;51.910;8.878;2023-05-10T03:07:59;2.22;;;1.08;;
26822;SDS011;14852;51.910;8.878;2023-05-10T03:10:29;1.60;;;1.10;;
26822;SDS011;14852;51.910;8.878;2023-05-10T03:13:06;1.05;;;0.98;;
26822;SDS011;14852;51.910;8.878;2023-05-10T03:16:10;1.20;;;1.10;;
26822;SDS011;14852;51.910;8.878;2023-05-10T03:19:01;1.08;;;0.98;;
26822;SDS011;14852;51.910;8.878;2023-05-10T03:21:55;1.50;;;1.40;;
26822;SDS011;14852;51.910;8.878;2023-05-10T03:24:31;1.35;;;1.25;;
26822;SDS011;14852;51.910;8.878;2023-05-10T03:27:00;1.58;;;1.30;;
26822;SDS011;14852;51.910;8.878;2023-05-10T03:29:29;2.28;;;1.70;;
26822;SDS011;14852;51.910;8.878;2023-05-10T03:31:59;2.10;;;1.60;;
26822;SDS011;14852;51.910;8.878;2023-05-10T03:34:27;2.42;;;2.05;;
26822;SDS011;14852;51.910;8.878;2023-05-10T03:36:55;2.20;;;2.00;;
26822;SDS011;14852;51.910;8.878;2023-05-10T03:39:23;3.17;;;2.33;;
26822;SDS011;14852;51.910;8.878;2023-05-10T03:41:53;2.10;;;1.90;;
26822;SDS011;14852;51.910;8.878;2023-05-10T03:44:19;2.40;;;2.05;;
26822;SDS011;14852;51.910;8.878;2023-05-10T03:46:45;2.25;;;2.00;;
26822;SDS011;14852;51.910;8.878;2023-05-10T03:49:11;2.33;;;2.13;;
26822;SDS011;14852;51.910;8.878;2023-05-10T03:51:37;4.45;;;2.35;;
26822;SDS011;14852;51.910;8.878;2023-05-10T03:54:02;3.00;;;2.63;;
26822;SDS011;14852;51.910;8.878;2023-05-10T03:56:29;3.20;;;2.85;;
26822;SDS011;14852;51.910;8.878;2023-05-10T03:58:55;2.95;;;2.65;;
26822;SDS011;14852;51.910;8.878;2023-05-10T04:01:21;3.63;;;3.33;;
26822;SDS011;14852;51.910;8.878;2023-05-10T04:03:46;3.20;;;2.90;;
26822;SDS011;14852;51.910;8.878;2023-05-10T04:06:12;3.15;;;2.85;;
26822;SDS011;14852;51.910;8.878;2023-05-10T04:08:38;3.55;;;3.05;;
26822;SDS011;14852;51.910;8.878;2023-05-10T04:11:04;3.35;;;3.05;;
26822;SDS011;14852;51.910;8.878;2023-05-10T04:13:34;3.88;;;3.30;;
26822;SDS011;14852;51.910;8.878;2023-05-10T04:16:00;4.10;;;3.53;;
26822;SDS011;14852;51.910;8.878;2023-05-10T04:18:26;3.78;;;3.47;;
26822;SDS011;14852;51.910;8.878;2023-05-10T04:20:51;3.60;;;3.30;;
26822;SDS011;14852;51.910;8.878;2023-05-10T04:23:17;4.18;;;3.42;;
26822;SDS011;14852;51.910;8.878;2023-05-10T04:25:43;3.90;;;3.53;;
26822;SDS011;14852;51.910;8.878;2023-05-10T04:28:09;3.80;;;3.40;;
26822;SDS011;14852;51.910;8.878;2023-05-10T04:30:34;4.53;;;3.42;;
26822;SDS011;14852;51.910;8.878;2023-05-10T04:33:00;3.90;;;3.42;;
26822;SDS011;14852;51.910;8.878;2023-05-10T04:35:27;5.05;;;3.72;;
26822;SDS011;14852;51.910;8.878;2023-05-10T04:37:53;4.28;;;3.88;;
26822;SDS011;14852;51.910;8.878;2023-05-10T04:40:19;3.97;;;3.58;;
26822;SDS011;14852;51.910;8.878;2023-05-10T04:42:45;3.55;;;3.25;;
26822;SDS011;14852;51.910;8.878;2023-05-10T04:45:11;3.63;;;3.13;;
26822;SDS011;14852;51.910;8.878;2023-05-10T04:47:39;3.25;;;2.95;;
26822;SDS011;14852;51.910;8.878;2023-05-10T04:50:05;3.25;;;2.95;;
26822;SDS011;14852;51.910;8.878;2023-05-10T04:52:32;2.88;;;2.33;;
26822;SDS011;14852;51.910;8.878;2023-05-10T04:54:58;2.50;;;2.10;;
26822;SDS011;14852;51.910;8.878;2023-05-10T04:57:23;2.60;;;1.92;;
26822;SDS011;14852;51.910;8.878;2023-05-10T04:59:49;2.50;;;1.60;;
26822;SDS011;14852;51.910;8.878;2023-05-10T05:02:15;1.92;;;1.42;;
26822;SDS011;14852;51.910;8.878;2023-05-10T05:04:41;1.63;;;1.30;;
26822;SDS011;14852;51.910;8.878;2023-05-10T05:07:07;1.67;;;1.45;;
26822;SDS011;14852;51.910;8.878;2023-05-10T05:09:33;1.10;;;1.00;;
26822;SDS011;14852;51.910;8.878;2023-05-10T05:11:58;1.58;;;0.68;;
26822;SDS011;14852;51.910;8.878;2023-05-10T05:14:25;1.30;;;1.10;;
26822;SDS011;14852;51.910;8.878;2023-05-10T05:16:51;0.98;;;0.90;;
26822;SDS011;14852;51.910;8.878;2023-05-10T05:19:17;1.10;;;1.00;;
26822;SDS011;14852;51.910;8.878;2023-05-10T05:21:43;1.73;;;0.98;;
26822;SDS011;14852;51.910;8.878;2023-05-10T05:24:09;0.88;;;0.88;;
26822;SDS011;14852;51.910;8.878;2023-05-10T05:26:36;0.50;;;0.50;;
26822;SDS011;14852;51.910;8.878;2023-05-10T05:29:02;0.80;;;0.80;;
26822;SDS011;14852;51.910;8.878;2023-05-10T05:31:28;1.33;;;1.10;;
26822;SDS011;14852;51.910;8.878;2023-05-10T05:33:54;0.50;;;0.50;;
26822;SDS011;14852;51.910;8.878;2023-05-10T05:36:20;0.60;;;0.60;;
26822;SDS011;14852;51.910;8.878;2023-05-10T05:38:46;1.30;;;0.80;;
26822;SDS011;14852;51.910;8.878;2023-05-10T05:41:12;1.20;;;0.55;;
26822;SDS011;14852;51.910;8.878;2023-05-10T05:43:38;0.75;;;0.75;;
26822;SDS011;14852;51.910;8.878;2023-05-10T05:46:04;0.68;;;0.68;;
26822;SDS011;14852;51.910;8.878;2023-05-10T05:48:30;0.77;;;0.63;;
26822;SDS011;14852;51.910;8.878;2023-05-10T05:50:56;0.60;;;0.60;;
26822;SDS011;14852;51.910;8.878;2023-05-10T05:53:22;0.88;;;0.85;;
26822;SDS011;14852;51.910;8.878;2023-05-10T05:55:52;1.02;;;0.80;;
26822;SDS011;14852;51.910;8.878;2023-05-10T05:58:19;1.60;;;0.98;;
26822;SDS011;14852;51.910;8.878;2023-05-10T06:00:46;0.93;;;0.80;;
26822;SDS011;14852;51.910;8.878;2023-05-10T06:03:12;0.90;;;0.60;;
26822;SDS011;14852;51.910;8.878;2023-05-10T06:05:38;0.63;;;0.63;;
26822;SDS011;14852;51.910;8.878;2023-05-10T06:08:03;1.20;;;1.02;;
26822;SDS011;14852;51.910;8.878;2023-05-10T06:10:29;0.82;;;0.82;;
26822;SDS011;14852;51.910;8.878;2023-05-10T06:12:55;0.90;;;0.90;;
26822;SDS011;14852;51.910;8.878;2023-05-10T06:15:21;0.90;;;0.90;;
26822;SDS011;14852;51.910;8.878;2023-05-10T06:17:47;1.15;;;1.05;;
26822;SDS011;14852;51.910;8.878;2023-05-10T06:20:14;1.35;;;1.23;;
26822;SDS011;14852;51.910;8.878;2023-05-10T06:22:41;0.95;;;0.88;;
26822;SDS011;14852;51.910;8.878;2023-05-10T06:25:07;1.17;;;1.02;;
26822;SDS011;14852;51.910;8.878;2023-05-10T06:27:33;1.60;;;1.13;;
26822;SDS011;14852;51.910;8.878;2023-05-10T06:29:59;1.50;;;1.40;;
26822;SDS011;14852;51.910;8.878;2023-05-10T06:32:25;1.65;;;1.55;;
26822;SDS011;14852;51.910;8.878;2023-05-10T06:34:50;1.15;;;1.05;;
26822;SDS011;14852;51.910;8.878;2023-05-10T06:37:17;1.80;;;1.45;;
26822;SDS011;14852;51.910;8.878;2023-05-10T06:39:42;2.22;;;1.50;;
26822;SDS011;14852;51.910;8.878;2023-05-10T06:42:08;2.75;;;1.40;;
26822;SDS011;14852;51.910;8.878;2023-05-10T06:44:34;2.28;;;1.40;;
26822;SDS011;14852;51.910;8.878;2023-05-10T06:47:00;2.08;;;1.40;;
26822;SDS011;14852;51.910;8.878;2023-05-10T06:49:26;2.00;;;1.60;;
26822;SDS011;14852;51.910;8.878;2023-05-10T06:51:51;1.40;;;1.30;;
26822;SDS011;14852;51.910;8.878;2023-05-10T06:54:17;1.55;;;1.13;;
26822;SDS011;14852;51.910;8.878;2023-05-10T06:56:43;1.95;;;1.25;;
26822;SDS011;14852;51.910;8.878;2023-05-10T06:59:09;0.80;;;0.77;;
26822;SDS011;14852;51.910;8.878;2023-05-10T07:01:34;2.38;;;1.00;;
26822;SDS011;14852;51.910;8.878;2023-05-10T07:04:00;1.23;;;1.13;;
26822;SDS011;14852;51.910;8.878;2023-05-10T07:06:26;1.52;;;1.40;;
26822;SDS011;14852;51.910;8.878;2023-05-10T07:08:52;2.33;;;1.40;;
26822;SDS011;14852;51.910;8.878;2023-05-10T07:11:18;2.40;;;1.42;;
26822;SDS011;14852;51.910;8.878;2023-05-10T07:13:44;1.65;;;1.40;;
26822;SDS011;14852;51.910;8.878;2023-05-10T07:16:11;2.13;;;1.38;;
26822;SDS011;14852;51.910;8.878;2023-05-10T07:18:37;1.73;;;1.60;;
26822;SDS011;14852;51.910;8.878;2023-05-10T07:21:03;1.30;;;1.10;;
26822;SDS011;14852;51.910;8.878;2023-05-10T07:23:28;2.63;;;1.20;;
26822;SDS011;14852;51.910;8.878;2023-05-10T07:25:55;1.73;;;1.15;;
26822;SDS011;14852;51.910;8.878;2023-05-10T07:28:22;1.55;;;1.27;;
26822;SDS011;14852;51.910;8.878;2023-05-10T07:30:51;2.88;;;2.05;;
26822;SDS011;14852;51.910;8.878;2023-05-10T07:33:17;2.33;;;1.20;;
26822;SDS011;14852;51.910;8.878;2023-05-10T07:35:43;1.58;;;1.40;;
26822;SDS011;14852;51.910;8.878;2023-05-10T07:38:08;1.33;;;1.20;;
26822;SDS011;14852;51.910;8.878;2023-05-10T07:40:36;1.10;;;1.00;;
26822;SDS011;14852;51.910;8.878;2023-05-10T07:43:02;1.52;;;1.42;;
26822;SDS011;14852;51.910;8.878;2023-05-10T07:45:28;1.20;;;1.10;;
26822;SDS011;14852;51.910;8.878;2023-05-10T07:47:53;4.63;;;1.63;;
26822;SDS011;14852;51.910;8.878;2023-05-10T07:50:19;2.10;;;1.30;;
26822;SDS011;14852;51.910;8.878;2023-05-10T07:52:46;1.90;;;1.50;;
26822;SDS011;14852;51.910;8.878;2023-05-10T07:55:13;1.67;;;1.58;;
26822;SDS011;14852;51.910;8.878;2023-05-10T07:57:38;2.10;;;1.90;;
26822;SDS011;14852;51.910;8.878;2023-05-10T08:00:05;2.15;;;1.90;;
26822;SDS011;14852;51.910;8.878;2023-05-10T08:02:38;3.65;;;2.20;;
26822;SDS011;14852;51.910;8.878;2023-05-10T08:05:04;2.88;;;1.90;;
26822;SDS011;14852;51.910;8.878;2023-05-10T08:07:30;3.30;;;2.20;;
26822;SDS011;14852;51.910;8.878;2023-05-10T08:09:56;4.30;;;2.78;;
26822;SDS011;14852;51.910;8.878;2023-05-10T08:12:22;4.15;;;3.10;;
26822;SDS011;14852;51.910;8.878;2023-05-10T08:14:47;3.58;;;2.95;;
26822;SDS011;14852;51.910;8.878;2023-05-10T08:17:13;3.42;;;2.60;;
26822;SDS011;14852;51.910;8.878;2023-05-10T08:19:39;4.90;;;3.63;;
26822;SDS011;14852;51.910;8.878;2023-05-10T08:22:05;6.93;;;3.80;;
26822;SDS011;14852;51.910;8.878;2023-05-10T08:24:31;5.35;;;3.92;;
26822;SDS011;14852;51.910;8.878;2023-05-10T08:26:57;5.75;;;4.68;;
26822;SDS011;14852;51.910;8.878;2023-05-10T08:29:23;9.13;;;4.70;;
26822;SDS011;14852;51.910;8.878;2023-05-10T08:31:48;6.53;;;4.53;;
26822;SDS011;14852;51.910;8.878;2023-05-10T08:34:14;6.07;;;4.70;;
26822;SDS011;14852;51.910;8.878;2023-05-10T08:36:40;5.15;;;4.00;;
26822;SDS011;14852;51.910;8.878;2023-05-10T08:39:06;5.43;;;4.85;;
26822;SDS011;14852;51.910;8.878;2023-05-10T08:41:32;7.57;;;5.13;;
26822;SDS011;14852;51.910;8.878;2023-05-10T08:44:00;5.75;;;5.07;;
26822;SDS011;14852;51.910;8.878;2023-05-10T08:46:29;5.78;;;4.55;;
26822;SDS011;14852;51.910;8.878;2023-05-10T08:48:58;6.05;;;4.53;;
26822;SDS011;14852;51.910;8.878;2023-05-10T08:51:29;7.00;;;5.38;;
26822;SDS011;14852;51.910;8.878;2023-05-10T08:54:01;7.77;;;5.10;;
26822;SDS011;14852;51.910;8.878;2023-05-10T08:56:29;7.70;;;5.82;;
26822;SDS011;14852;51.910;8.878;2023-05-10T08:58:55;12.43;;;6.25;;
26822;SDS011;14852;51.910;8.878;2023-05-10T09:01:21;8.30;;;5.90;;
26822;SDS011;14852;51.910;8.878;2023-05-10T09:03:48;9.63;;;6.18;;
26822;SDS011;14852;51.910;8.878;2023-05-10T09:06:14;8.15;;;6.05;;
26822;SDS011;14852;51.910;8.878;2023-05-10T09:08:41;9.57;;;6.50;;
26822;SDS011;14852;51.910;8.878;2023-05-10T09:11:08;9.48;;;6.68;;
26822;SDS011;14852;51.910;8.878;2023-05-10T09:13:35;9.10;;;5.70;;
26822;SDS011;14852;51.910;8.878;2023-05-10T09:16:02;8.18;;;5.68;;
26822;SDS011;14852;51.910;8.878;2023-05-10T09:18:28;7.13;;;5.47;;
26822;SDS011;14852;51.910;8.878;2023-05-10T09:20:54;8.80;;;5.72;;
26822;SDS011;14852;51.910;8.878;2023-05-10T09:23:20;7.10;;;5.80;;
26822;SDS011;14852;51.910;8.878;2023-05-10T09:25:46;6.63;;;4.80;;
26822;SDS011;14852;51.910;8.878;2023-05-10T09:28:11;7.72;;;6.32;;
26822;SDS011;14852;51.910;8.878;2023-05-10T09:30:37;7.68;;;6.03;;
26822;SDS011;14852;51.910;8.878;2023-05-10T09:33:04;8.30;;;5.78;;
26822;SDS011;14852;51.910;8.878;2023-05-10T09:35:31;5.75;;;5.07;;
26822;SDS011;14852;51.910;8.878;2023-05-10T09:38:02;7.68;;;5.57;;
26822;SDS011;14852;51.910;8.878;2023-05-10T09:40:30;6.95;;;4.90;;
26822;SDS011;14852;51.910;8.878;2023-05-10T09:42:57;5.70;;;3.95;;
26822;SDS011;14852;51.910;8.878;2023-05-10T09:45:29;6.47;;;4.33;;
26822;SDS011;14852;51.910;8.878;2023-05-10T09:47:57;6.18;;;4.38;;
26822;SDS011;14852;51.910;8.878;2023-05-10T09:50:25;8.00;;;5.32;;
26822;SDS011;14852;51.910;8.878;2023-05-10T09:52:58;6.43;;;5.22;;
26822;SDS011;14852;51.910;8.878;2023-05-10T09:55:42;5.15;;;4.15;;
26822;SDS011;14852;51.910;8.878;2023-05-10T09:58:11;6.13;;;5.53;;
26822;SDS011;14852;51.910;8.878;2023-05-10T10:00:40;7.03;;;4.47;;
26822;SDS011;14852;51.910;8.878;2023-05-10T10:03:15;7.57;;;6.03;;
26822;SDS011;14852;51.910;8.878;2023-05-10T10:05:43;7.10;;;5.90;;
26822;SDS011;14852;51.910;8.878;2023-05-10T10:08:10;11.00;;;6.68;;
26822;SDS011;14852;51.910;8.878;2023-05-10T10:10:37;7.32;;;5.85;;
26822;SDS011;14852;51.910;8.878;2023-05-10T10:13:05;7.47;;;6.45;;
26822;SDS011;14852;51.910;8.878;2023-05-10T10:15:32;7.43;;;6.53;;
26822;SDS011;14852;51.910;8.878;2023-05-10T10:17:59;7.75;;;6.43;;
26822;SDS011;14852;51.910;8.878;2023-05-10T10:20:26;6.68;;;5.97;;
26822;SDS011;14852;51.910;8.878;2023-05-10T10:22:53;10.40;;;7.00;;
26822;SDS011;14852;51.910;8.878;2023-05-10T10:25:19;8.35;;;6.10;;
26822;SDS011;14852;51.910;8.878;2023-05-10T10:30:39;7.83;;;6.30;;
26822;SDS011;14852;51.910;8.878;2023-05-10T10:36:30;6.97;;;6.03;;
26822;SDS011;14852;51.910;8.878;2023-05-10T10:38:58;10.50;;;7.97;;
26822;SDS011;14852;51.910;8.878;2023-05-10T10:41:27;9.35;;;7.20;;
26822;SDS011;14852;51.910;8.878;2023-05-10T10:57:27;8.57;;;7.70;;
26822;SDS011;14852;51.910;8.878;2023-05-10T11:02:47;9.45;;;8.55;;
26822;SDS011;14852;51.910;8.878;2023-05-10T11:08:12;9.55;;;7.20;;
26822;SDS011;14852;51.910;8.878;2023-05-10T11:10:38;9.00;;;6.93;;
26822;SDS011;14852;51.910;8.878;2023-05-10T11:13:13;8.40;;;6.95;;
26822;SDS011;14852;51.910;8.878;2023-05-10T11:15:39;7.90;;;7.10;;
26822;SDS011;14852;51.910;8.878;2023-05-10T11:18:29;8.80;;;6.85;;
26822;SDS011;14852;51.910;8.878;2023-05-10T11:25:56;7.38;;;6.68;;
26822;SDS011;14852;51.910;8.878;2023-05-10T11:28:22;7.22;;;6.07;;
26822;SDS011;14852;51.910;8.878;2023-05-10T11:30:48;9.50;;;7.50;;
26822;SDS011;14852;51.910;8.878;2023-05-10T11:33:15;8.07;;;6.68;;
26822;SDS011;14852;51.910;8.878;2023-05-10T11:35:42;5.97;;;5.15;;
26822;SDS011;14852;51.910;8.878;2023-05-10T11:38:12;9.40;;;6.53;;
26822;SDS011;14852;51.910;8.878;2023-05-10T11:40:39;6.32;;;5.18;;
26822;SDS011;14852;51.910;8.878;2023-05-10T11:43:05;8.55;;;6.38;;
26822;SDS011;14852;51.910;8.878;2023-05-10T11:45:33;6.88;;;5.22;;
26822;SDS011;14852;51.910;8.878;2023-05-10T11:48:00;6.75;;;5.05;;
26822;SDS011;14852;51.910;8.878;2023-05-10T11:50:27;7.72;;;5.85;;
26822;SDS011;14852;51.910;8.878;2023-05-10T11:52:54;7.78;;;5.47;;
26822;SDS011;14852;51.910;8.878;2023-05-10T11:55:21;6.75;;;5.28;;
26822;SDS011;14852;51.910;8.878;2023-05-10T11:57:51;6.20;;;5.22;;
26822;SDS011;14852;51.910;8.878;2023-05-10T12:00:18;8.57;;;5.32;;
26822;SDS011;14852;51.910;8.878;2023-05-10T12:02:44;5.50;;;4.93;;
26822;SDS011;14852;51.910;8.878;2023-05-10T12:05:10;5.75;;;4.72;;
26822;SDS011;14852;51.910;8.878;2023-05-10T12:07:36;5.88;;;4.68;;
26822;SDS011;14852;51.910;8.878;2023-05-10T12:10:12;4.82;;;4.32;;
26822;SDS011;14852;51.910;8.878;2023-05-10T12:12:46;5.68;;;4.82;;
26822;SDS011;14852;51.910;8.878;2023-05-10T12:15:23;5.35;;;4.63;;
26822;SDS011;14852;51.910;8.878;2023-05-10T12:17:49;5.80;;;4.20;;
26822;SDS011;14852;51.910;8.878;2023-05-10T12:20:19;4.57;;;4.15;;
26822;SDS011;14852;51.910;8.878;2023-05-10T12:22:53;3.90;;;3.50;;
26822;SDS011;14852;51.910;8.878;2023-05-10T12:25:23;5.35;;;4.53;;
26822;SDS011;14852;51.910;8.878;2023-05-10T12:30:25;5.68;;;4.53;;
26822;SDS011;14852;51.910;8.878;2023-05-10T12:32:59;6.25;;;4.68;;
26822;SDS011;14852;51.910;8.878;2023-05-10T12:35:38;6.25;;;4.97;;
26822;SDS011;14852;51.910;8.878;2023-05-10T12:41:14;6.47;;;4.00;;
26822;SDS011;14852;51.910;8.878;2023-05-10T12:43:41;4.35;;;3.28;;
26822;SDS011;14852;51.910;8.878;2023-05-10T12:46:11;4.88;;;3.03;;
26822;SDS011;14852;51.910;8.878;2023-05-10T12:48:39;4.38;;;3.97;;
26822;SDS011;14852;51.910;8.878;2023-05-10T12:51:07;4.28;;;3.40;;
26822;SDS011;14852;51.910;8.878;2023-05-10T12:53:41;2.58;;;2.20;;
26822;SDS011;14852;51.910;8.878;2023-05-10T12:56:07;2.58;;;2.05;;
26822;SDS011;14852;51.910;8.878;2023-05-10T12:58:32;2.80;;;2.47;;
26822;SDS011;14852;51.910;8.878;2023-05-10T13:00:59;2.95;;;2.53;;
26822;SDS011;14852;51.910;8.878;2023-05-10T13:03:25;4.40;;;2.50;;
26822;SDS011;14852;51.910;8.878;2023-05-10T13:05:50;4.10;;;2.17;;
26822;SDS011;14852;51.910;8.878;2023-05-10T13:08:16;4.18;;;2.80;;
26822;SDS011;14852;51.910;8.878;2023-05-10T13:10:42;4.30;;;3.22;;
26822;SDS011;14852;51.910;8.878;2023-05-10T13:13:08;3.75;;;2.95;;
26822;SDS011;14852;51.910;8.878;2023-05-10T13:15:34;4.82;;;3.67;;
26822;SDS011;14852;51.910;8.878;2023-05-10T13:18:00;5.05;;;4.05;;
26822;SDS011;14852;51.910;8.878;2023-05-10T13:20:25;6.28;;;4.70;;
26822;SDS011;14852;51.910;8.878;2023-05-10T13:22:52;6.20;;;5.00;;
26822;SDS011;14852;51.910;8.878;2023-05-10T13:25:18;6.10;;;5.20;;
26822;SDS011;14852;51.910;8.878;2023-05-10T13:27:44;6.65;;;5.80;;
26822;SDS011;14852;51.910;8.878;2023-05-10T13:30:10;7.75;;;6.38;;
26822;SDS011;14852;51.910;8.878;2023-05-10T13:32:36;6.80;;;5.35;;
26822;SDS011;14852;51.910;8.878;2023-05-10T13:35:03;6.65;;;4.50;;
26822;SDS011;14852;51.910;8.878;2023-05-10T13:37:30;5.35;;;4.10;;
26822;SDS011;14852;51.910;8.878;2023-05-10T13:39:57;6.22;;;4.32;;
26822;SDS011;14852;51.910;8.878;2023-05-10T13:42:22;6.80;;;4.07;;
26822;SDS011;14852;51.910;8.878;2023-05-10T13:44:52;4.95;;;3.75;;
26822;SDS011;14852;51.910;8.878;2023-05-10T13:47:17;5.40;;;3.97;;
26822;SDS011;14852;51.910;8.878;2023-05-10T13:49:43;5.43;;;3.90;;
26822;SDS011;14852;51.910;8.878;2023-05-10T13:52:09;5.68;;;3.88;;
26822;SDS011;14852;51.910;8.878;2023-05-10T13:54:35;6.10;;;4.30;;
26822;SDS011;14852;51.910;8.878;2023-05-10T13:57:03;5.38;;;4.18;;
26822;SDS011;14852;51.910;8.878;2023-05-10T13:59:29;5.75;;;4.03;;
26822;SDS011;14852;51.910;8.878;2023-05-10T14:01:58;6.30;;;3.97;;
26822;SDS011;14852;51.910;8.878;2023-05-10T14:04:27;4.10;;;3.25;;
26822;SDS011;14852;51.910;8.878;2023-05-10T14:06:54;4.88;;;2.95;;
26822;SDS011;14852;51.910;8.878;2023-05-10T14:09:19;3.90;;;3.13;;
26822;SDS011;14852;51.910;8.878;2023-05-10T14:11:45;4.55;;;3.13;;
26822;SDS011;14852;51.910;8.878;2023-05-10T14:14:11;4.70;;;3.08;;
26822;SDS011;14852;51.910;8.878;2023-05-10T14:16:40;4.60;;;2.78;;
26822;SDS011;14852;51.910;8.878;2023-05-10T14:19:08;3.97;;;3.17;;
26822;SDS011;14852;51.910;8.878;2023-05-10T14:21:34;4.85;;;3.47;;
26822;SDS011;14852;51.910;8.878;2023-05-10T14:24:00;5.68;;;3.88;;
26822;SDS011;14852;51.910;8.878;2023-05-10T14:26:26;4.78;;;4.13;;
26822;SDS011;14852;51.910;8.878;2023-05-10T14:28:52;7.50;;;5.43;;
26822;SDS011;14852;51.910;8.878;2023-05-10T14:31:18;6.95;;;5.28;;
26822;SDS011;14852;51.910;8.878;2023-05-10T14:33:45;6.53;;;5.82;;
26822;SDS011;14852;51.910;8.878;2023-05-10T14:36:12;6.45;;;5.53;;
26822;SDS011;14852;51.910;8.878;2023-05-10T14:38:38;9.05;;;5.78;;
26822;SDS011;14852;51.910;8.878;2023-05-10T14:41:05;3.65;;;3.20;;
26822;SDS011;14852;51.910;8.878;2023-05-10T14:43:31;3.67;;;2.40;;
26822;SDS011;14852;51.910;8.878;2023-05-10T14:45:57;3.33;;;2.90;;
26822;SDS011;14852;51.910;8.878;2023-05-10T14:48:23;3.38;;;2.70;;
26822;SDS011;14852;51.910;8.878;2023-05-10T14:50:48;4.35;;;2.55;;
26822;SDS011;14852;51.910;8.878;2023-05-10T14:53:15;2.88;;;2.30;;
26822;SDS011;14852;51.910;8.878;2023-05-10T14:55:41;3.72;;;2.08;;
26822;SDS011;14852;51.910;8.878;2023-05-10T14:58:06;2.35;;;1.85;;
26822;SDS011;14852;51.910;8.878;2023-05-10T15:00:32;2.42;;;1.98;;
26822;SDS011;14852;51.910;8.878;2023-05-10T15:02:58;2.88;;;2.40;;
26822;SDS011;14852;51.910;8.878;2023-05-10T15:05:24;3.15;;;2.42;;
26822;SDS011;14852;51.910;8.878;2023-05-10T15:07:50;2.58;;;2.13;;
26822;SDS011;14852;51.910;8.878;2023-05-10T15:10:15;3.13;;;2.08;;
26822;SDS011;14852;51.910;8.878;2023-05-10T15:12:43;3.30;;;2.65;;
26822;SDS011;14852;51.910;8.878;2023-05-10T15:15:09;4.47;;;2.88;;
26822;SDS011;14852;51.910;8.878;2023-05-10T15:17:34;3.03;;;2.67;;
26822;SDS011;14852;51.910;8.878;2023-05-10T15:20:00;4.47;;;3.30;;
26822;SDS011;14852;51.910;8.878;2023-05-10T15:22:30;4.57;;;3.03;;
26822;SDS011;14852;51.910;8.878;2023-05-10T15:24:56;3.35;;;2.88;;
26822;SDS011;14852;51.910;8.878;2023-05-10T15:27:24;4.53;;;2.70;;
26822;SDS011;14852;51.910;8.878;2023-05-10T15:29:50;3.15;;;2.50;;
26822;SDS011;14852;51.910;8.878;2023-05-10T15:32:16;3.17;;;2.33;;
26822;SDS011;14852;51.910;8.878;2023-05-10T15:34:42;4.55;;;2.28;;
26822;SDS011;14852;51.910;8.878;2023-05-10T15:37:08;5.70;;;3.35;;
26822;SDS011;14852;51.910;8.878;2023-05-10T15:39:34;5.43;;;3.65;;
26822;SDS011;14852;51.910;8.878;2023-05-10T15:42:00;5.75;;;4.20;;
26822;SDS011;14852;51.910;8.878;2023-05-10T15:44:26;5.47;;;4.95;;
26822;SDS011;14852;51.910;8.878;2023-05-10T15:46:52;6.07;;;5.03;;
26822;SDS011;14852;51.910;8.878;2023-05-10T15:49:17;5.75;;;4.40;;